createdAt,value
2018-09-03T00:01:35.723Z,18.80
2018-09-03T00:04:03.826Z,18.74
2018-09-03T00:06:31.906Z,18.78
2018-09-03T00:09:00.287Z,18.67
2018-09-03T00:11:28.527Z,18.74
2018-09-03T00:13:56.621Z,18.78
2018-09-03T00:16:24.687Z,18.78
2018-09-03T00:18:52.783Z,18.68
2018-09-03T00:21:20.919Z,18.72
2018-09-03T00:23:52.947Z,18.77
2018-09-03T00:26:21.039Z,18.68
2018-09-03T00:28:49.169Z,18.74
2018-09-03T00:33:28.387Z,18.72
2018-09-03T00:36:01.783Z,18.70
2018-09-03T00:38:35.370Z,18.80
2018-09-03T00:41:08.855Z,18.67
2018-09-03T00:43:42.455Z,18.79
2018-09-03T00:46:15.874Z,18.66
2018-09-03T00:48:44.045Z,18.79
2018-09-03T00:51:12.119Z,18.97
2018-09-03T00:53:40.227Z,18.72
2018-09-03T00:56:08.291Z,18.66
2018-09-03T00:58:36.379Z,18.71
2018-09-03T01:01:04.469Z,18.71
2018-09-03T01:03:32.540Z,18.65
2018-09-03T01:06:00.668Z,18.80
2018-09-03T01:08:28.732Z,18.60
2018-09-03T01:10:56.803Z,18.67
2018-09-03T01:13:24.903Z,18.66
2018-09-03T01:15:52.983Z,18.81
2018-09-03T01:18:21.396Z,18.85
2018-09-03T01:23:34.776Z,18.84
2018-09-03T01:26:02.881Z,18.63
2018-09-03T01:28:31.583Z,18.59
2018-09-03T01:30:59.861Z,18.63
2018-09-03T01:33:28.062Z,18.59
2018-09-03T01:35:56.170Z,18.60
2018-09-03T01:38:24.311Z,18.70
2018-09-03T01:40:52.627Z,18.57
2018-09-03T01:43:22.049Z,18.55
2018-09-03T01:45:50.507Z,18.62
2018-09-03T01:48:19.429Z,18.58
2018-09-03T01:50:47.528Z,18.47
2018-09-03T01:53:15.778Z,18.57
2018-09-03T01:55:43.971Z,18.46
2018-09-03T01:58:12.037Z,18.46
2018-09-03T02:00:40.106Z,18.38
2018-09-03T02:03:08.181Z,18.48
2018-09-03T02:05:36.570Z,18.47
2018-09-03T02:08:05.075Z,18.52
2018-09-03T02:10:33.267Z,18.51
2018-09-03T02:13:01.552Z,18.48
2018-09-03T02:15:29.571Z,18.49
2018-09-03T02:18:04.004Z,18.46
2018-09-03T02:20:32.080Z,18.52
2018-09-03T02:23:00.243Z,18.33
2018-09-03T02:25:28.381Z,18.46
2018-09-03T02:27:56.580Z,18.50
2018-09-03T02:30:24.887Z,18.46
2018-09-03T02:32:53.031Z,18.41
2018-09-03T02:35:21.092Z,18.50
2018-09-03T02:37:49.631Z,18.47
2018-09-03T02:40:17.695Z,18.46
2018-09-03T02:42:45.776Z,18.38
2018-09-03T02:45:14.004Z,18.44
2018-09-03T02:47:42.096Z,18.44
2018-09-03T02:50:10.196Z,18.46
2018-09-03T02:52:38.326Z,18.43
2018-09-03T02:55:07.027Z,18.44
2018-09-03T02:57:35.720Z,18.41
2018-09-03T03:00:03.839Z,18.37
2018-09-03T03:02:31.956Z,18.33
2018-09-03T03:05:00.072Z,18.38
2018-09-03T03:07:28.281Z,18.38
2018-09-03T03:09:56.395Z,18.43
2018-09-03T03:12:25.603Z,18.25
2018-09-03T03:14:55.619Z,18.20
2018-09-03T03:17:24.801Z,18.20
2018-09-03T03:19:52.921Z,18.27
2018-09-03T03:22:21.165Z,18.13
2018-09-03T03:24:50.082Z,18.21
2018-09-03T03:27:18.171Z,18.27
2018-09-03T03:29:46.251Z,18.21
2018-09-03T03:32:15.509Z,18.15
2018-09-03T03:34:43.669Z,18.14
2018-09-03T03:37:11.759Z,18.13
2018-09-03T03:39:39.859Z,18.27
2018-09-03T03:42:08.164Z,18.18
2018-09-03T03:44:36.269Z,18.29
2018-09-03T03:47:04.424Z,18.23
2018-09-03T03:49:33.069Z,18.26
2018-09-03T03:52:01.339Z,18.24
2018-09-03T03:54:30.078Z,18.22
2018-09-03T03:56:58.296Z,18.03
2018-09-03T03:59:26.448Z,18.05
2018-09-03T04:01:54.529Z,18.10
2018-09-03T04:04:22.660Z,18.20
2018-09-03T04:06:50.775Z,18.24
2018-09-03T04:09:18.852Z,18.21
2018-09-03T04:11:47.124Z,18.18
2018-09-03T04:14:15.211Z,18.16
2018-09-03T04:16:43.272Z,18.21
2018-09-03T04:19:11.338Z,18.13
2018-09-03T04:21:39.428Z,18.17
2018-09-03T04:24:07.669Z,18.19
2018-09-03T04:26:35.778Z,18.18
2018-09-03T04:29:03.898Z,18.19
2018-09-03T04:31:32.174Z,18.27
2018-09-03T04:34:00.266Z,18.25
2018-09-03T04:36:28.673Z,18.16
2018-09-03T04:38:56.864Z,18.23
2018-09-03T04:41:25.122Z,18.07
2018-09-03T04:43:53.201Z,18.05
2018-09-03T04:46:21.370Z,18.19
2018-09-03T04:48:50.267Z,18.09
2018-09-03T04:51:18.326Z,18.04
2018-09-03T04:53:46.460Z,18.12
2018-09-03T04:56:14.679Z,18.14
2018-09-03T04:58:43.131Z,18.03
2018-09-03T05:01:11.233Z,18.13
2018-09-03T05:03:40.120Z,18.24
2018-09-03T05:06:08.208Z,18.14
2018-09-03T05:08:36.257Z,18.20
2018-09-03T05:11:04.387Z,18.15
2018-09-03T05:13:32.537Z,18.19
2018-09-03T05:16:00.663Z,18.18
2018-09-03T05:18:28.731Z,18.19
2018-09-03T05:20:56.823Z,18.23
2018-09-03T05:23:24.941Z,18.24
2018-09-03T05:25:53.045Z,18.19
2018-09-03T05:28:21.182Z,18.31
2018-09-03T05:30:49.324Z,18.37
2018-09-03T05:33:17.655Z,18.34
2018-09-03T05:35:45.858Z,18.25
2018-09-03T05:38:13.949Z,18.32
2018-09-03T05:40:42.298Z,18.32
2018-09-03T05:43:10.518Z,18.33
2018-09-03T05:45:38.502Z,18.35
2018-09-03T05:48:06.719Z,18.34
2018-09-03T05:50:34.814Z,18.36
2018-09-03T05:53:03.291Z,18.40
2018-09-03T05:55:31.384Z,18.39
2018-09-03T05:57:59.445Z,18.44
2018-09-03T06:00:27.508Z,18.49
2018-09-03T06:02:55.590Z,18.43
2018-09-03T06:05:23.941Z,18.50
2018-09-03T06:07:52.023Z,18.39
2018-09-03T06:10:24.273Z,18.54
2018-09-03T06:12:52.306Z,18.52
2018-09-03T06:15:20.758Z,18.60
2018-09-03T06:17:48.932Z,18.66
2018-09-03T06:20:17.103Z,18.63
2018-09-03T06:22:45.281Z,18.56
2018-09-03T06:25:13.500Z,18.58
2018-09-03T06:27:41.621Z,18.65
2018-09-03T06:30:09.906Z,18.57
2018-09-03T06:32:38.842Z,18.61
2018-09-03T06:35:07.099Z,18.57
2018-09-03T06:37:35.169Z,18.67
2018-09-03T06:40:03.533Z,18.79
2018-09-03T06:42:31.738Z,18.77
2018-09-03T06:44:59.811Z,18.74
2018-09-03T06:47:30.772Z,18.66
2018-09-03T06:49:59.972Z,18.79
2018-09-03T06:52:28.166Z,18.77
2018-09-03T06:54:56.362Z,18.76
2018-09-03T06:57:24.625Z,18.80
2018-09-03T06:59:52.790Z,18.94
2018-09-03T07:02:22.933Z,19.01
2018-09-03T07:04:51.039Z,18.99
2018-09-03T07:07:19.143Z,19.12
2018-09-03T07:09:47.226Z,19.09
2018-09-03T07:12:15.427Z,19.05
2018-09-03T07:14:43.615Z,19.01
2018-09-03T07:17:12.390Z,19.09
2018-09-03T07:19:40.649Z,19.10
2018-09-03T07:22:08.874Z,19.05
2018-09-03T07:24:37.063Z,19.11
2018-09-03T07:27:05.378Z,19.22
2018-09-03T07:29:33.450Z,19.15
2018-09-03T07:32:01.572Z,18.99
2018-09-03T07:34:30.211Z,19.12
2018-09-03T07:36:58.351Z,19.29
2018-09-03T07:39:26.524Z,19.32
2018-09-03T07:41:54.629Z,19.47
2018-09-03T07:44:22.818Z,19.43
2018-09-03T07:46:52.200Z,19.46
2018-09-03T07:49:25.309Z,19.51
2018-09-03T07:51:53.378Z,19.52
2018-09-03T07:54:21.469Z,19.54
2018-09-03T07:56:49.593Z,19.61
2018-09-03T07:59:17.747Z,19.62
2018-09-03T08:01:45.926Z,19.74
2018-09-03T08:04:14.039Z,19.87
2018-09-03T08:06:42.114Z,19.87
2018-09-03T08:09:11.438Z,19.96
2018-09-03T08:11:39.632Z,19.79
2018-09-03T08:14:07.687Z,19.88
2018-09-03T08:16:35.775Z,19.93
2018-09-03T08:19:03.899Z,20.00
2018-09-03T08:21:32.285Z,20.10
2018-09-03T08:24:00.319Z,20.17
2018-09-03T08:26:28.462Z,20.07
2018-09-03T08:28:56.546Z,20.12
2018-09-03T08:31:24.825Z,20.11
2018-09-03T08:33:53.589Z,20.19
2018-09-03T08:36:23.510Z,20.33
2018-09-03T08:38:51.634Z,20.50
2018-09-03T08:41:20.291Z,20.75
2018-09-03T08:43:48.375Z,20.64
2018-09-03T08:46:16.454Z,20.61
2018-09-03T08:48:44.645Z,20.87
2018-09-03T08:51:12.831Z,20.67
2018-09-03T08:53:40.902Z,20.82
2018-09-03T08:56:08.995Z,20.90
2018-09-03T08:58:37.799Z,20.94
2018-09-03T09:01:05.924Z,20.81
2018-09-03T09:03:39.427Z,20.95
2018-09-03T09:06:07.511Z,21.27
2018-09-03T09:08:35.637Z,21.54
2018-09-03T09:11:04.107Z,21.55
2018-09-03T09:13:32.364Z,21.49
2018-09-03T09:16:00.475Z,21.59
2018-09-03T09:18:28.586Z,21.90
2018-09-03T09:20:56.722Z,22.01
2018-09-03T09:23:24.845Z,22.10
2018-09-03T09:25:52.941Z,22.14
2018-09-03T09:28:21.993Z,22.90
2018-09-03T09:30:50.243Z,23.34
2018-09-03T09:33:18.382Z,22.99
2018-09-03T09:35:46.507Z,22.83
2018-09-03T09:38:15.002Z,23.13
2018-09-03T09:40:43.075Z,22.98
2018-09-03T09:43:11.279Z,22.93
2018-09-03T09:45:39.377Z,23.01
2018-09-03T09:48:07.452Z,22.77
2018-09-03T09:50:35.615Z,23.28
2018-09-03T09:53:03.705Z,23.11
2018-09-03T09:55:31.778Z,23.21
2018-09-03T09:57:59.823Z,23.27
2018-09-03T10:00:33.830Z,23.14
2018-09-03T10:03:01.917Z,23.55
2018-09-03T10:05:30.054Z,22.68
2018-09-03T10:07:58.170Z,22.53
2018-09-03T10:10:26.281Z,22.77
2018-09-03T10:12:54.319Z,22.76
2018-09-03T10:15:22.572Z,22.87
2018-09-03T10:17:52.381Z,23.20
2018-09-03T10:20:20.566Z,23.34
2018-09-03T10:22:48.706Z,23.66
2018-09-03T10:25:16.773Z,24.55
2018-09-03T10:27:44.863Z,24.75
2018-09-03T10:30:12.960Z,24.56
2018-09-03T10:32:41.287Z,24.43
2018-09-03T10:35:09.384Z,24.35
2018-09-03T10:37:37.727Z,24.80
2018-09-03T10:40:06.272Z,24.61
2018-09-03T10:42:34.707Z,25.59
2018-09-03T10:45:02.792Z,26.07
2018-09-03T10:47:30.990Z,25.61
2018-09-03T10:49:59.009Z,25.02
2018-09-03T10:52:27.067Z,24.89
2018-09-03T10:54:55.139Z,25.16
2018-09-03T10:57:23.279Z,25.30
2018-09-03T10:59:52.017Z,24.58
2018-09-03T11:02:20.116Z,24.86
2018-09-03T11:04:48.202Z,24.83
2018-09-03T11:07:16.292Z,24.80
2018-09-03T11:09:44.395Z,24.62
2018-09-03T11:12:12.564Z,24.17
2018-09-03T11:14:40.632Z,24.21
2018-09-03T11:17:08.750Z,24.11
2018-09-03T11:19:42.144Z,24.17
2018-09-03T11:22:10.227Z,24.61
2018-09-03T11:24:38.385Z,25.46
2018-09-03T11:27:06.512Z,26.17
2018-09-03T11:29:34.609Z,26.14
2018-09-03T11:32:02.907Z,26.69
2018-09-03T11:34:31.051Z,26.14
2018-09-03T11:36:59.270Z,25.97
2018-09-03T11:39:27.551Z,25.48
2018-09-03T11:41:55.674Z,25.58
2018-09-03T11:44:23.774Z,25.59
2018-09-03T11:46:52.150Z,25.90
2018-09-03T11:49:20.209Z,26.01
2018-09-03T11:51:48.322Z,25.76
2018-09-03T11:54:16.510Z,25.84
2018-09-03T11:56:44.667Z,25.68
2018-09-03T11:59:12.831Z,25.87
2018-09-03T12:01:40.939Z,26.24
2018-09-03T12:04:09.015Z,25.48
2018-09-03T12:06:37.180Z,24.93
2018-09-03T12:09:07.930Z,25.07
2018-09-03T12:11:36.059Z,24.60
2018-09-03T12:14:08.382Z,24.58
2018-09-03T12:16:36.506Z,24.12
2018-09-03T12:19:04.787Z,24.10
2018-09-03T12:21:33.319Z,24.28
2018-09-03T12:24:01.416Z,24.11
2018-09-03T12:26:29.567Z,24.29
2018-09-03T12:28:58.031Z,24.08
2018-09-03T12:31:26.251Z,24.05
2018-09-03T12:33:54.326Z,24.24
2018-09-03T12:36:22.481Z,24.16
2018-09-03T12:38:50.669Z,24.28
2018-09-03T12:41:18.913Z,24.22
2018-09-03T12:43:47.278Z,24.33
2018-09-03T12:46:15.421Z,24.30
2018-09-03T12:48:43.550Z,24.25
2018-09-03T12:51:11.701Z,24.11
2018-09-03T12:53:39.792Z,24.34
2018-09-03T12:56:07.919Z,24.36
2018-09-03T12:58:36.114Z,24.46
2018-09-03T13:01:04.250Z,24.69
2018-09-03T13:03:32.415Z,24.47
2018-09-03T13:06:00.566Z,24.32
2018-09-03T13:08:28.901Z,24.57
2018-09-03T13:10:57.002Z,24.78
2018-09-03T13:13:25.168Z,24.78
2018-09-03T13:15:53.478Z,24.63
2018-09-03T13:18:22.614Z,24.49
2018-09-03T13:20:50.703Z,24.64
2018-09-03T13:23:19.153Z,24.79
2018-09-03T13:25:47.267Z,24.77
2018-09-03T13:28:15.474Z,24.79
2018-09-03T13:30:43.803Z,24.76
2018-09-03T13:33:12.421Z,24.68
2018-09-03T13:35:40.565Z,24.62
2018-09-03T13:38:09.340Z,24.39
2018-09-03T13:40:38.177Z,24.54
2018-09-03T13:43:06.887Z,24.62
2018-09-03T13:45:35.058Z,24.68
2018-09-03T13:48:03.170Z,24.72
2018-09-03T13:50:31.279Z,24.75
2018-09-03T13:52:59.506Z,24.85
2018-09-03T13:55:27.686Z,24.59
2018-09-03T13:57:56.079Z,24.49
2018-09-03T14:00:24.344Z,24.86
2018-09-03T14:02:55.095Z,25.12
2018-09-03T14:05:23.611Z,25.12
2018-09-03T14:07:52.826Z,24.91
2018-09-03T14:10:20.968Z,25.03
2018-09-03T14:12:49.298Z,25.25
2018-09-03T14:15:17.345Z,25.70
2018-09-03T14:17:45.507Z,25.68
2018-09-03T14:20:13.627Z,26.06
2018-09-03T14:22:41.718Z,26.40
2018-09-03T14:25:09.814Z,26.65
2018-09-03T14:27:37.957Z,27.48
2018-09-03T14:30:06.218Z,26.81
2018-09-03T14:32:34.376Z,26.00
2018-09-03T14:35:02.538Z,25.16
2018-09-03T14:37:30.731Z,24.78
2018-09-03T14:39:58.953Z,24.78
2018-09-03T14:42:27.147Z,24.74
2018-09-03T14:44:55.618Z,24.65
2018-09-03T14:47:25.170Z,24.78
2018-09-03T14:49:53.252Z,24.91
2018-09-03T14:52:21.341Z,24.78
2018-09-03T14:54:49.485Z,24.86
2018-09-03T14:57:17.566Z,24.60
2018-09-03T14:59:45.843Z,24.50
2018-09-03T15:02:14.104Z,24.36
2018-09-03T15:04:42.127Z,24.36
2018-09-03T15:07:10.330Z,24.21
2018-09-03T15:09:38.589Z,24.08
2018-09-03T15:12:06.636Z,23.90
2018-09-03T15:14:34.882Z,24.07
2018-09-03T15:17:02.942Z,23.91
2018-09-03T15:19:31.002Z,24.22
2018-09-03T15:21:59.043Z,23.93
2018-09-03T15:24:27.212Z,24.13
2018-09-03T15:26:55.253Z,25.55
2018-09-03T15:29:27.726Z,27.23
2018-09-03T15:31:55.796Z,27.65
2018-09-03T15:34:24.010Z,26.72
2018-09-03T15:36:52.114Z,26.58
2018-09-03T15:39:20.163Z,26.39
2018-09-03T15:41:48.307Z,25.94
2018-09-03T15:44:18.366Z,25.84
2018-09-03T15:46:46.459Z,25.75
2018-09-03T15:49:14.561Z,26.36
2018-09-03T15:51:42.678Z,26.29
2018-09-03T15:54:11.523Z,25.70
2018-09-03T15:56:39.727Z,24.69
2018-09-03T15:59:08.036Z,24.43
2018-09-03T16:01:36.524Z,24.64
2018-09-03T16:04:04.690Z,24.99
2018-09-03T16:06:34.711Z,25.04
2018-09-03T16:09:02.977Z,24.99
2018-09-03T16:11:31.158Z,24.87
2018-09-03T16:13:59.587Z,25.39
2018-09-03T16:16:27.834Z,25.27
2018-09-03T16:18:55.930Z,24.89
2018-09-03T16:21:24.035Z,24.72
2018-09-03T16:23:52.150Z,24.35
2018-09-03T16:26:20.215Z,24.36
2018-09-03T16:28:49.005Z,24.08
2018-09-03T16:31:17.178Z,23.88
2018-09-03T16:33:45.270Z,23.94
2018-09-03T16:36:13.354Z,24.07
2018-09-03T16:38:41.478Z,24.02
2018-09-03T16:41:09.514Z,24.14
2018-09-03T16:43:37.662Z,24.09
2018-09-03T16:46:05.773Z,24.24
2018-09-03T16:48:33.880Z,24.23
2018-09-03T16:51:02.294Z,24.33
2018-09-03T16:53:36.674Z,24.35
2018-09-03T16:56:11.154Z,24.25
2018-09-03T16:58:39.447Z,23.97
2018-09-03T17:01:07.644Z,23.95
2018-09-03T17:03:35.680Z,24.03
2018-09-03T17:06:03.732Z,23.83
2018-09-03T17:08:31.914Z,23.96
2018-09-03T17:10:59.931Z,23.68
2018-09-03T17:13:28.224Z,23.55
2018-09-03T17:15:57.300Z,23.45
2018-09-03T17:18:25.443Z,23.39
2018-09-03T17:20:53.884Z,23.33
2018-09-03T17:23:21.974Z,23.25
2018-09-03T17:25:50.059Z,23.27
2018-09-03T17:28:18.262Z,23.22
2018-09-03T17:30:46.322Z,23.20
2018-09-03T17:33:15.307Z,23.07
2018-09-03T17:35:43.527Z,23.06
2018-09-03T17:38:11.663Z,23.01
2018-09-03T17:40:39.889Z,22.92
2018-09-03T17:43:08.013Z,22.88
2018-09-03T17:45:36.107Z,22.92
2018-09-03T17:48:04.242Z,22.90
2018-09-03T17:50:32.315Z,22.85
2018-09-03T17:53:00.397Z,22.87
2018-09-03T17:55:28.501Z,22.86
2018-09-03T17:57:56.868Z,22.77
2018-09-03T18:00:24.957Z,22.81
2018-09-03T18:02:54.014Z,22.67
2018-09-03T18:05:22.172Z,22.67
2018-09-03T18:07:50.326Z,22.57
2018-09-03T18:10:18.391Z,22.56
2018-09-03T18:12:46.543Z,22.51
2018-09-03T18:15:14.654Z,22.56
2018-09-03T18:17:42.831Z,22.57
2018-09-03T18:20:11.010Z,22.55
2018-09-03T18:22:39.084Z,22.55
2018-09-03T18:25:07.459Z,22.51
2018-09-03T18:27:35.586Z,22.46
2018-09-03T18:30:03.749Z,22.48
2018-09-03T18:32:31.963Z,22.49
2018-09-03T18:35:00.174Z,22.49
2018-09-03T18:37:28.269Z,22.48
2018-09-03T18:39:56.356Z,22.43
2018-09-03T18:42:25.236Z,22.43
2018-09-03T18:44:54.414Z,22.44
2018-09-03T18:47:22.520Z,22.44
2018-09-03T18:49:51.060Z,22.42
2018-09-03T18:52:19.260Z,22.41
2018-09-03T18:54:47.354Z,22.41
2018-09-03T18:59:42.623Z,22.33
2018-09-03T19:02:10.991Z,22.29
2018-09-03T19:04:39.179Z,22.29
2018-09-03T19:07:07.246Z,22.31
2018-09-03T19:09:35.343Z,22.31
2018-09-03T19:12:03.502Z,22.26
2018-09-03T19:14:32.495Z,22.29
2018-09-03T19:17:00.570Z,22.27
2018-09-03T19:19:28.706Z,22.24
2018-09-03T19:21:56.814Z,22.18
2018-09-03T19:24:25.371Z,22.25
2018-09-03T19:26:56.392Z,22.13
2018-09-03T19:29:24.492Z,22.13
2018-09-03T19:31:52.648Z,22.20
2018-09-03T19:34:21.511Z,22.14
2018-09-03T19:36:49.726Z,22.18
2018-09-03T19:39:18.095Z,22.15
2018-09-03T19:41:46.157Z,22.05
2018-09-03T19:44:14.208Z,22.05
2018-09-03T19:46:42.368Z,22.08
2018-09-03T19:49:10.745Z,22.12
2018-09-03T19:51:38.956Z,22.10
2018-09-03T19:54:07.070Z,22.11
2018-09-03T19:56:35.207Z,22.07
2018-09-03T19:59:03.349Z,22.09
2018-09-03T20:01:31.451Z,22.10
2018-09-03T20:03:59.568Z,22.03
2018-09-03T20:06:27.728Z,21.96
2018-09-03T20:08:55.885Z,21.97
2018-09-03T20:11:24.322Z,21.98
2018-09-03T20:13:52.401Z,21.96
2018-09-03T20:16:20.489Z,21.96
2018-09-03T20:18:48.582Z,21.94
2018-09-03T20:21:16.761Z,21.94
2018-09-03T20:23:45.018Z,21.90
2018-09-03T20:26:13.103Z,21.87
2018-09-03T20:28:41.207Z,21.86
2018-09-03T20:31:15.679Z,21.83
2018-09-03T20:33:43.807Z,21.77
2018-09-03T20:36:11.887Z,21.80
2018-09-03T20:38:39.934Z,21.83
2018-09-03T20:41:08.134Z,21.74
2018-09-03T20:43:38.538Z,21.78
2018-09-03T20:46:06.615Z,21.76
2018-09-03T20:48:34.795Z,21.78
2018-09-03T20:51:03.665Z,21.60
2018-09-03T20:53:32.581Z,21.62
2018-09-03T20:56:00.800Z,21.64
2018-09-03T20:58:28.906Z,21.59
2018-09-03T21:00:56.999Z,21.52
2018-09-03T21:03:25.147Z,21.50
2018-09-03T21:05:53.348Z,21.48
2018-09-03T21:08:21.534Z,21.53
2018-09-03T21:10:49.601Z,21.50
2018-09-03T21:13:17.747Z,21.52
2018-09-03T21:15:45.822Z,21.47
2018-09-03T21:18:13.983Z,21.31
2018-09-03T21:20:42.067Z,21.24
2018-09-03T21:23:10.126Z,21.30
2018-09-03T21:28:29.106Z,21.34
2018-09-03T21:31:00.010Z,21.29
2018-09-03T21:33:28.277Z,21.27
2018-09-03T21:35:56.576Z,21.26
2018-09-03T21:38:24.743Z,21.37
2018-09-03T21:40:53.033Z,21.38
2018-09-03T21:43:21.244Z,21.35
2018-09-03T21:45:49.603Z,21.31
2018-09-03T21:48:18.399Z,21.29
2018-09-03T21:50:46.516Z,21.24
2018-09-03T21:53:14.755Z,21.24
2018-09-03T21:55:42.991Z,21.21
2018-09-03T21:58:11.167Z,21.20
2018-09-03T22:00:39.289Z,21.18
2018-09-03T22:03:07.496Z,21.17
2018-09-03T22:05:36.433Z,21.16
2018-09-03T22:08:05.460Z,21.08
2018-09-03T22:10:33.709Z,21.23
2018-09-03T22:13:01.892Z,21.23
2018-09-03T22:15:30.239Z,21.16
2018-09-03T22:17:58.425Z,21.14
2018-09-03T22:20:26.568Z,21.15
2018-09-03T22:22:56.546Z,21.08
2018-09-03T22:25:25.024Z,21.10
2018-09-03T22:27:53.775Z,21.09
2018-09-03T22:30:21.941Z,21.05
2018-09-03T22:32:50.267Z,21.00
2018-09-03T22:35:18.364Z,21.10
2018-09-03T22:37:46.468Z,21.01
2018-09-03T22:40:14.612Z,21.02
2018-09-03T22:42:42.757Z,21.00
2018-09-03T22:45:10.859Z,20.93
2018-09-03T22:47:38.961Z,20.86
2018-09-03T22:50:07.070Z,20.96
2018-09-03T22:52:35.320Z,20.96
2018-09-03T22:55:03.408Z,20.91
2018-09-03T22:57:31.546Z,20.91
2018-09-03T23:00:00.059Z,20.93
2018-09-03T23:02:28.903Z,20.97
2018-09-03T23:04:57.830Z,20.86
2018-09-03T23:07:25.963Z,20.93
2018-09-03T23:14:53.467Z,21.02
2018-09-03T23:17:22.632Z,20.93
2018-09-03T23:19:50.781Z,20.95
2018-09-03T23:22:18.901Z,20.96
2018-09-03T23:24:47.000Z,20.86
2018-09-03T23:27:15.210Z,20.85
2018-09-03T23:29:43.540Z,20.92
2018-09-03T23:32:11.673Z,20.92
2018-09-03T23:34:39.827Z,20.83
2018-09-03T23:37:08.196Z,20.85
2018-09-03T23:39:36.623Z,20.85
2018-09-03T23:42:04.761Z,20.84
2018-09-03T23:44:32.921Z,20.66
2018-09-03T23:47:01.016Z,20.75
2018-09-03T23:49:29.191Z,20.59
2018-09-03T23:51:57.407Z,20.47
2018-09-03T23:54:25.702Z,20.55
2018-09-03T23:56:53.856Z,20.53
2018-09-03T23:59:22.196Z,20.56
